Muskoka Airport
CYQA : now visible

Airfield :











YOU CAN JOIN US ON...

 
LOGIN :

Register | Disclaimer

   EN    FR    IT 

 









Legend :    VFR   Marginal VFR   IFR   Intensive IFR   Very Intensive IFR
Visi :
Ceiling :
>= 8 km
>= 3000ft
5 to 8 km
1000 to 3000 ft
1500m to 5 km
500 to 1000 ft
800 to 1500m
200 to 500 ft
< 800m
< 200 ft
Symbols :   Thunderstorms  Fog  Heavy snow  Heavy precipitations  Wind > 20 kt






- Airport Elevation : 925 ft
- IATA code : YQA


CYQA - Muskoka

CURRENT METAR :
  • 120308Z AUTO 27010G17KT 210V300 2 1/4SM -SN SCT016 OVC023 M07/M10 A3033 RMK SLP290

EXPIRED METARs :
  • 120307Z AUTO 27011G17KT 210V330 2 1/2SM -SN SCT016 OVC023 M07/M10 A3033 RMK SLP290
  • 120255Z AUTO VRB09G17KT 4SM -SN OVC025 M08/M10 A3032 RMK SLP287
  • 120248Z AUTO 32006KT 260V340 6SM -SN SCT015 OVC025 M07/M10 A3032 RMK SLP288
  • 120223Z AUTO 29007KT 1 1/4SM -SN BKN011 OVC018 M07/M09 A3031 RMK SLP285
  • 120205Z AUTO 28009G15KT 260V320 1 1/2SM -SN OVC012 M07/M09 A3030 RMK SLP282
  • 120152Z AUTO 27008G19KT 240V300 3/4SM -SN VV010 M08/M09 A3030 RMK SLP281
  • 120146Z AUTO 26011G21KT 5/8SM -SN VV008 M08/M09 A3030 RMK SLP280
  • 120100Z AUTO 28010G15KT 260V330 5/8SM -SN VV006 M08/M09 A3028 RMK SLP273
  • 120051Z AUTO 29010G15KT 250V320 1/2SM SN VV007 M08/M09 A3027 RMK SLP271
  • 120028Z AUTO 27013G21KT 1 1/4SM -SN OVC021 M08/M11 A3026 RMK SLP267

Expired Forecast.



MET'MAP, your aeronautical weather chart ! - Copyright ORBIFLY December 2007 - Disclaimer

ORBIFLY MET'MAP TEAM :

Programming & Development : Alexandra Zaïnal
Concept & original design : Baudouin d'Aumeries
Assistance for programming : Marc-Olivier Méhu
Technical & hardware support : Manuel Goepfert

Contact : metmap@orbifly.com




SOURCES & CREDITS :

   NOAA       Earth
Advisory